createdAt,value
2024-01-11T00:00:55.233Z,31.30
2024-01-11T00:01:54.822Z,31.37
2024-01-11T00:02:54.817Z,29.02
2024-01-11T00:03:54.802Z,28.81
2024-01-11T00:04:54.871Z,29.42
2024-01-11T00:05:54.908Z,30.21
2024-01-11T00:06:54.908Z,29.52
2024-01-11T00:07:54.817Z,30.33
2024-01-11T00:08:54.879Z,30.24
2024-01-11T00:09:54.897Z,29.99
2024-01-11T00:10:55.905Z,29.29
2024-01-11T00:11:54.810Z,29.88
2024-01-11T00:12:54.924Z,29.50
2024-01-11T00:13:54.932Z,30.88
2024-01-11T00:14:54.978Z,30.65
2024-01-11T00:15:54.950Z,30.10
2024-01-11T00:16:54.925Z,29.52
2024-01-11T00:17:55.049Z,29.29
2024-01-11T00:18:55.064Z,28.08
2024-01-11T00:19:55.991Z,30.21
2024-01-11T00:20:55.020Z,28.35
2024-01-11T00:21:55.015Z,30.23
2024-01-11T00:22:55.017Z,28.77
2024-01-11T00:23:55.039Z,29.61
2024-01-11T00:24:55.100Z,28.95
2024-01-11T00:25:55.085Z,29.53
2024-01-11T00:26:55.072Z,29.49
2024-01-11T00:27:55.121Z,29.99
2024-01-11T00:28:55.180Z,30.94
2024-01-11T00:29:55.067Z,27.81
2024-01-11T00:30:55.077Z,29.17
2024-01-11T00:31:55.084Z,28.56
2024-01-11T00:32:56.140Z,29.55
2024-01-11T00:33:55.199Z,29.70
2024-01-11T00:34:55.176Z,29.11
2024-01-11T00:35:55.108Z,29.01
2024-01-11T00:36:55.080Z,28.07
2024-01-11T00:37:55.105Z,29.45
2024-01-11T00:38:55.112Z,29.08
2024-01-11T00:39:55.069Z,27.17
2024-01-11T00:40:55.098Z,26.65
2024-01-11T00:41:55.102Z,26.04
2024-01-11T00:42:56.053Z,27.69
2024-01-11T00:43:55.154Z,28.60
2024-01-11T00:44:55.163Z,27.74
2024-01-11T00:45:55.127Z,28.34
2024-01-11T00:46:55.183Z,27.03
2024-01-11T00:47:55.257Z,27.50
2024-01-11T00:48:56.780Z,28.50
2024-01-11T00:49:55.321Z,26.66
2024-01-11T00:50:56.188Z,26.50
2024-01-11T00:51:55.177Z,28.14
2024-01-11T00:52:55.226Z,27.04
2024-01-11T00:53:55.184Z,27.01
2024-01-11T00:54:55.191Z,26.48
2024-01-11T00:55:55.344Z,27.93
2024-01-11T00:56:55.317Z,27.36
2024-01-11T00:57:55.247Z,27.80
2024-01-11T00:58:56.164Z,25.40
2024-01-11T00:59:55.231Z,27.72
2024-01-11T01:00:55.179Z,26.63
2024-01-11T01:01:55.196Z,27.22
2024-01-11T01:02:56.077Z,27.40
2024-01-11T01:03:55.191Z,27.63
2024-01-11T01:04:56.178Z,27.56
2024-01-11T01:05:55.352Z,27.95
2024-01-11T01:06:55.254Z,27.55
2024-01-11T01:07:55.314Z,27.82
2024-01-11T01:08:55.374Z,24.33
2024-01-11T01:09:55.188Z,27.21
2024-01-11T01:10:55.307Z,26.40
2024-01-11T01:11:55.276Z,26.43
2024-01-11T01:12:55.322Z,27.05
2024-01-11T01:13:55.314Z,26.24
2024-01-11T01:14:55.279Z,25.61
2024-01-11T01:15:55.262Z,25.92
2024-01-11T01:16:55.199Z,25.29
2024-01-11T01:17:55.503Z,26.13
2024-01-11T01:18:55.332Z,25.88
2024-01-11T01:19:55.349Z,25.69
2024-01-11T01:20:55.300Z,26.59
2024-01-11T01:21:55.269Z,26.48
2024-01-11T01:22:55.287Z,25.78
2024-01-11T01:23:55.287Z,25.98
2024-01-11T01:24:55.325Z,26.86
2024-01-11T01:25:55.314Z,25.90
2024-01-11T01:26:55.299Z,26.41
2024-01-11T01:27:55.382Z,26.14
2024-01-11T01:28:55.299Z,27.19
2024-01-11T01:29:55.326Z,26.59
2024-01-11T01:30:55.383Z,27.94
2024-01-11T01:31:55.474Z,27.34
2024-01-11T01:32:55.435Z,26.19
2024-01-11T01:33:55.414Z,26.42
2024-01-11T01:34:55.323Z,25.89
2024-01-11T01:35:55.285Z,26.29
2024-01-11T01:36:55.337Z,26.60
2024-01-11T01:37:55.271Z,26.94
2024-01-11T01:38:55.370Z,27.77
2024-01-11T01:39:55.322Z,26.40
2024-01-11T01:40:55.461Z,26.79
2024-01-11T01:41:55.192Z,27.84
2024-01-11T01:42:55.302Z,27.81
2024-01-11T01:43:55.287Z,27.55
2024-01-11T01:44:55.339Z,27.30
2024-01-11T01:45:55.439Z,28.14
2024-01-11T01:46:55.369Z,26.28
2024-01-11T01:47:55.394Z,26.79
2024-01-11T01:48:55.403Z,27.28
2024-01-11T01:49:55.384Z,27.83
2024-01-11T01:50:55.357Z,27.53
2024-01-11T01:51:55.372Z,26.95
2024-01-11T01:52:55.386Z,26.22
2024-01-11T01:53:55.317Z,25.85
2024-01-11T01:54:55.311Z,25.43
2024-01-11T01:55:55.304Z,26.11
2024-01-11T01:56:55.333Z,25.47
2024-01-11T01:57:55.432Z,26.42
2024-01-11T01:58:55.377Z,25.84
2024-01-11T01:59:55.425Z,25.88
2024-01-11T02:00:56.197Z,26.64
2024-01-11T02:01:55.430Z,25.89
2024-01-11T02:02:55.500Z,26.49
2024-01-11T02:03:55.504Z,25.60
2024-01-11T02:04:55.512Z,25.63
2024-01-11T02:05:55.593Z,26.67
2024-01-11T02:06:55.457Z,25.91
2024-01-11T02:07:55.392Z,25.41
2024-01-11T02:08:55.401Z,26.73
2024-01-11T02:09:55.493Z,26.15
2024-01-11T02:10:55.508Z,25.59
2024-01-11T02:11:55.480Z,26.66
2024-01-11T02:12:56.073Z,25.60
2024-01-11T02:13:55.470Z,26.68
2024-01-11T02:14:55.468Z,26.52
2024-01-11T02:15:55.360Z,24.84
2024-01-11T02:16:55.490Z,25.64
2024-01-11T02:17:55.485Z,23.91
2024-01-11T02:18:55.480Z,26.32
2024-01-11T02:19:55.537Z,26.55
2024-01-11T02:20:55.428Z,25.79
2024-01-11T02:21:55.417Z,26.19
2024-01-11T02:22:56.174Z,24.26
2024-01-11T02:23:55.476Z,24.68
2024-01-11T02:24:55.460Z,24.13
2024-01-11T02:25:55.433Z,25.11
2024-01-11T02:26:55.468Z,24.31
2024-01-11T02:27:55.419Z,25.00
2024-01-11T02:28:55.492Z,24.50
2024-01-11T02:29:55.359Z,24.77
2024-01-11T02:30:55.476Z,23.73
2024-01-11T02:31:56.056Z,23.81
2024-01-11T02:32:55.664Z,22.29
2024-01-11T02:33:55.418Z,22.96
2024-01-11T02:34:56.141Z,23.19
2024-01-11T02:35:55.359Z,23.08
2024-01-11T02:36:55.362Z,23.50
2024-01-11T02:37:56.182Z,23.69
2024-01-11T02:38:55.367Z,23.02
2024-01-11T02:39:56.048Z,23.28
2024-01-11T02:40:55.337Z,24.11
2024-01-11T02:41:55.311Z,23.65
2024-01-11T02:42:57.009Z,22.74
2024-01-11T02:43:55.350Z,23.44
2024-01-11T02:44:55.302Z,23.30
2024-01-11T02:45:56.170Z,24.10
2024-01-11T02:46:55.370Z,23.24
2024-01-11T02:47:55.358Z,23.15
2024-01-11T02:48:55.382Z,24.08
2024-01-11T02:49:55.326Z,23.33
2024-01-11T02:50:55.346Z,22.66
2024-01-11T02:51:55.192Z,22.34
2024-01-11T02:52:55.287Z,22.97
2024-01-11T02:53:55.269Z,23.31
2024-01-11T02:54:56.139Z,24.60
2024-01-11T02:55:55.344Z,22.99
2024-01-11T02:56:55.248Z,23.46
2024-01-11T02:57:55.261Z,23.16
2024-01-11T02:58:55.401Z,22.76
2024-01-11T02:59:55.318Z,23.01
2024-01-11T03:00:55.317Z,22.43
2024-01-11T03:01:55.323Z,22.50
2024-01-11T03:02:55.295Z,22.56
2024-01-11T03:03:55.394Z,22.84
2024-01-11T03:04:55.301Z,23.03
2024-01-11T03:05:55.398Z,22.01
2024-01-11T03:06:55.338Z,23.30
2024-01-11T03:07:55.300Z,22.87
2024-01-11T03:08:55.311Z,23.22
2024-01-11T03:09:55.287Z,22.81
2024-01-11T03:10:55.324Z,22.77
2024-01-11T03:11:55.258Z,23.33
2024-01-11T03:12:55.272Z,21.84
2024-01-11T03:13:55.279Z,20.65
2024-01-11T03:14:55.268Z,23.63
2024-01-11T03:15:55.280Z,22.77
2024-01-11T03:16:55.286Z,23.22
2024-01-11T03:17:55.451Z,22.20
2024-01-11T03:18:55.358Z,22.83
2024-01-11T03:19:55.403Z,23.53
2024-01-11T03:20:55.989Z,22.70
2024-01-11T03:21:55.376Z,21.85
2024-01-11T03:22:55.319Z,22.08
2024-01-11T03:23:55.260Z,22.86
2024-01-11T03:24:55.309Z,22.05
2024-01-11T03:25:55.359Z,21.47
2024-01-11T03:26:55.292Z,21.40
2024-01-11T03:27:55.338Z,20.95
2024-01-11T03:28:55.387Z,20.93
2024-01-11T03:29:55.328Z,21.33
2024-01-11T03:30:55.410Z,22.63
2024-01-11T03:31:55.390Z,21.93
2024-01-11T03:32:55.469Z,21.21
2024-01-11T03:33:55.357Z,21.01
2024-01-11T03:34:56.142Z,23.14
2024-01-11T03:35:55.259Z,22.81
2024-01-11T03:36:55.288Z,21.03
2024-01-11T03:37:55.306Z,22.86
2024-01-11T03:38:55.266Z,23.03
2024-01-11T03:39:55.301Z,20.70
2024-01-11T03:40:55.326Z,21.28
2024-01-11T03:41:55.246Z,22.68
2024-01-11T03:42:55.226Z,21.18
2024-01-11T03:43:55.268Z,22.04
2024-01-11T03:44:55.285Z,21.88
2024-01-11T03:45:55.272Z,22.18
2024-01-11T03:46:55.342Z,21.87
2024-01-11T03:47:55.357Z,21.87
2024-01-11T03:48:56.024Z,21.62
2024-01-11T03:49:55.383Z,21.55
2024-01-11T03:50:55.331Z,20.07
2024-01-11T03:51:55.333Z,21.34
2024-01-11T03:52:55.570Z,20.37
2024-01-11T03:53:55.474Z,22.31
2024-01-11T03:54:55.407Z,21.34
2024-01-11T03:55:55.369Z,21.70
2024-01-11T03:56:55.416Z,21.68
2024-01-11T03:57:55.388Z,20.60
2024-01-11T03:58:55.466Z,20.96
2024-01-11T03:59:56.087Z,21.08
2024-01-11T04:00:55.407Z,21.45
2024-01-11T04:01:55.403Z,20.33
2024-01-11T04:02:55.364Z,20.02
2024-01-11T04:03:55.545Z,20.23
2024-01-11T04:04:55.402Z,20.15
2024-01-11T04:05:55.441Z,19.97
2024-01-11T04:06:55.373Z,20.60
2024-01-11T04:07:55.420Z,20.90
2024-01-11T04:08:55.328Z,20.32
2024-01-11T04:09:55.370Z,21.12
2024-01-11T04:10:56.106Z,21.09
2024-01-11T04:11:55.358Z,19.91
2024-01-11T04:12:55.307Z,20.59
2024-01-11T04:13:55.382Z,20.94
2024-01-11T04:14:55.300Z,20.05
2024-01-11T04:15:55.326Z,20.83
2024-01-11T04:16:55.395Z,19.65
2024-01-11T04:17:55.373Z,21.75
2024-01-11T04:18:55.300Z,20.40
2024-01-11T04:19:55.370Z,20.15
2024-01-11T04:20:55.243Z,21.12
2024-01-11T04:21:55.286Z,20.03
2024-01-11T04:22:55.265Z,21.38
2024-01-11T04:23:55.250Z,21.82
2024-01-11T04:24:55.306Z,20.39
2024-01-11T04:25:55.216Z,20.65
2024-01-11T04:26:56.138Z,21.21
2024-01-11T04:27:55.244Z,21.13
2024-01-11T04:28:57.917Z,20.78
2024-01-11T04:29:55.316Z,22.56
2024-01-11T04:30:55.377Z,21.16
2024-01-11T04:31:55.262Z,22.19
2024-01-11T04:32:55.337Z,21.85
2024-01-11T04:33:56.263Z,20.64
2024-01-11T04:34:55.280Z,20.71
2024-01-11T04:35:55.036Z,21.85
2024-01-11T04:36:55.171Z,20.82
2024-01-11T04:37:55.188Z,22.66
2024-01-11T04:38:55.144Z,20.32
2024-01-11T04:39:55.090Z,20.78
2024-01-11T04:40:55.214Z,19.60
2024-01-11T04:41:55.162Z,19.06
2024-01-11T04:42:55.170Z,20.66
2024-01-11T04:43:55.231Z,21.10
2024-01-11T04:44:55.167Z,21.38
2024-01-11T04:45:55.202Z,20.40
2024-01-11T04:46:55.216Z,21.75
2024-01-11T04:47:55.539Z,20.92
2024-01-11T04:48:55.366Z,20.21
2024-01-11T04:49:55.286Z,20.64
2024-01-11T04:50:55.237Z,20.16
2024-01-11T04:51:55.191Z,21.27
2024-01-11T04:52:55.234Z,19.71
2024-01-11T04:53:55.223Z,20.96
2024-01-11T04:54:55.247Z,21.54
2024-01-11T04:55:55.172Z,20.51
2024-01-11T04:56:55.176Z,22.13
2024-01-11T04:57:55.180Z,21.22
2024-01-11T04:58:55.245Z,22.11
2024-01-11T04:59:55.234Z,22.02
2024-01-11T05:00:55.316Z,22.09
2024-01-11T05:01:55.224Z,22.56
2024-01-11T05:02:55.370Z,22.31
2024-01-11T05:03:55.254Z,22.23
2024-01-11T05:04:55.233Z,20.56
2024-01-11T05:05:55.277Z,19.95
2024-01-11T05:06:55.270Z,21.77
2024-01-11T05:07:55.245Z,21.94
2024-01-11T05:08:56.111Z,21.20
2024-01-11T05:09:55.246Z,20.55
2024-01-11T05:10:55.252Z,20.71
2024-01-11T05:11:55.255Z,20.95
2024-01-11T05:12:55.261Z,20.10
2024-01-11T05:13:55.312Z,20.15
2024-01-11T05:14:56.085Z,22.18
2024-01-11T05:15:55.265Z,21.51
2024-01-11T05:16:55.350Z,21.44
2024-01-11T05:17:55.466Z,20.94
2024-01-11T05:18:55.414Z,19.71
2024-01-11T05:19:55.312Z,20.69
2024-01-11T05:20:56.159Z,21.38
2024-01-11T05:21:55.274Z,20.24
2024-01-11T05:22:56.134Z,20.83
2024-01-11T05:23:55.290Z,21.22
2024-01-11T05:24:55.342Z,19.67
2024-01-11T05:25:55.347Z,21.50
2024-01-11T05:26:55.337Z,20.03
2024-01-11T05:27:55.308Z,20.82
2024-01-11T05:28:55.354Z,20.01
2024-01-11T05:29:55.206Z,20.42
2024-01-11T05:30:56.301Z,20.77
2024-01-11T05:31:55.423Z,20.13
2024-01-11T05:41:13.902Z,20.49
2024-01-11T05:42:03.492Z,20.54
2024-01-11T05:43:03.531Z,20.24
2024-01-11T05:44:03.587Z,19.99
2024-01-11T05:45:03.612Z,20.09
2024-01-11T05:46:03.629Z,20.50
2024-01-11T05:47:03.654Z,20.10
2024-01-11T05:48:03.741Z,21.32
2024-01-11T05:49:03.738Z,19.89
2024-01-11T05:50:03.775Z,21.27
2024-01-11T05:51:03.781Z,19.99
2024-01-11T05:52:03.936Z,21.17
2024-01-11T05:53:03.765Z,20.82
2024-01-11T05:54:03.810Z,20.45
2024-01-11T05:55:03.959Z,19.90
2024-01-11T05:56:04.043Z,21.67
2024-01-11T05:57:04.175Z,20.39
2024-01-11T05:58:04.175Z,22.05
2024-01-11T05:59:04.237Z,21.36
2024-01-11T06:00:04.302Z,20.71
2024-01-11T06:02:27.216Z,21.38
2024-01-11T06:03:04.769Z,21.83
2024-01-11T06:04:04.466Z,20.92
2024-01-11T06:05:04.562Z,21.59
2024-01-11T06:06:04.735Z,21.43
2024-01-11T06:07:05.292Z,21.42
2024-01-11T06:08:04.529Z,20.54
2024-01-11T06:09:04.599Z,20.77
2024-01-11T06:10:04.596Z,20.34
2024-01-11T06:11:04.635Z,20.30
2024-01-11T06:12:04.623Z,20.15
2024-01-11T06:13:04.624Z,22.15
2024-01-11T06:14:06.492Z,20.99
2024-01-11T06:15:04.868Z,19.75
2024-01-11T06:16:04.760Z,19.94
2024-01-11T06:17:04.873Z,21.74
2024-01-11T06:18:04.838Z,21.14
2024-01-11T06:19:04.976Z,23.01
2024-01-11T06:20:05.050Z,22.83
2024-01-11T06:21:05.096Z,25.34
2024-01-11T06:22:05.211Z,23.77
2024-01-11T06:23:05.323Z,20.33
2024-01-11T06:24:05.220Z,21.40
2024-01-11T06:25:05.430Z,22.16
2024-01-11T06:26:05.599Z,20.56
2024-01-11T06:27:05.638Z,22.50
2024-01-11T06:28:05.646Z,21.02
2024-01-11T06:29:05.787Z,22.70
2024-01-11T06:30:06.193Z,21.87
2024-01-11T06:31:05.994Z,20.27
2024-01-11T06:32:05.837Z,21.32
2024-01-11T06:33:06.035Z,20.54
2024-01-11T06:34:06.028Z,22.61
2024-01-11T06:35:06.664Z,20.74
2024-01-11T06:36:06.208Z,19.95
2024-01-11T06:37:06.140Z,21.38
2024-01-11T06:38:06.266Z,21.12
2024-01-11T06:39:06.148Z,20.24
2024-01-11T06:40:06.654Z,20.42
2024-01-11T06:41:06.263Z,18.79
2024-01-11T06:42:06.374Z,18.82
2024-01-11T06:43:06.572Z,19.03
2024-01-11T06:44:06.448Z,22.10
2024-01-11T06:45:06.510Z,21.63
2024-01-11T06:47:29.054Z,21.26
2024-01-11T06:48:06.581Z,22.93
2024-01-11T06:49:06.955Z,21.25
2024-01-11T06:50:06.706Z,20.18
2024-01-11T06:51:06.712Z,22.34
2024-01-11T06:52:06.584Z,20.71
2024-01-11T06:53:06.799Z,21.14
2024-01-11T06:54:06.576Z,21.20
2024-01-11T06:55:06.698Z,21.08
2024-01-11T06:56:06.712Z,20.07
2024-01-11T06:57:06.646Z,21.49
2024-01-11T06:58:06.829Z,21.01
2024-01-11T06:59:06.744Z,20.21
2024-01-11T07:00:07.045Z,19.73
2024-01-11T07:01:06.844Z,20.15
2024-01-11T07:02:06.889Z,20.79
2024-01-11T07:03:06.862Z,20.41
2024-01-11T07:04:07.029Z,20.28
2024-01-11T07:05:07.082Z,20.33
2024-01-11T07:06:07.304Z,24.41
2024-01-11T07:07:07.073Z,21.59
2024-01-11T07:08:07.283Z,20.57
2024-01-11T07:09:07.324Z,20.66
2024-01-11T07:10:07.396Z,20.37
2024-01-11T07:11:07.468Z,19.46
2024-01-11T07:12:07.895Z,20.69
2024-01-11T07:13:08.074Z,20.83
2024-01-11T07:14:07.763Z,20.62
2024-01-11T07:15:08.154Z,20.49
2024-01-11T07:16:07.745Z,19.44
2024-01-11T07:17:07.860Z,19.47
2024-01-11T07:18:08.002Z,19.19
2024-01-11T07:19:08.943Z,20.93
2024-01-11T07:20:08.478Z,20.76
2024-01-11T07:21:08.101Z,20.02
2024-01-11T07:22:07.986Z,20.77
2024-01-11T07:23:08.045Z,21.35
2024-01-11T07:24:08.115Z,20.83
2024-01-11T07:25:08.539Z,20.35
2024-01-11T07:26:08.384Z,19.97
2024-01-11T07:27:08.258Z,19.36
2024-01-11T07:28:08.408Z,18.97
2024-01-11T07:29:08.488Z,21.16
2024-01-11T07:30:08.510Z,19.43
2024-01-11T07:31:08.808Z,19.90
2024-01-11T07:32:08.604Z,19.06
2024-01-11T07:33:10.864Z,20.63
2024-01-11T07:34:08.646Z,20.19
2024-01-11T07:35:12.162Z,19.64
2024-01-11T07:36:10.070Z,19.32
2024-01-11T07:37:09.313Z,20.32
2024-01-11T07:38:09.073Z,21.74
2024-01-11T07:39:10.532Z,19.71
2024-01-11T07:40:09.330Z,20.38
2024-01-11T07:41:09.602Z,19.87
2024-01-11T07:42:09.156Z,21.36
2024-01-11T07:43:09.840Z,20.10
2024-01-11T07:44:09.198Z,20.36
2024-01-11T07:45:09.666Z,20.97
2024-01-11T07:46:09.752Z,21.33
2024-01-11T07:47:09.860Z,19.59
2024-01-11T07:48:09.598Z,22.10
2024-01-11T07:49:10.221Z,20.23
2024-01-11T07:50:09.621Z,20.38
2024-01-11T07:51:09.645Z,21.47
2024-01-11T07:52:10.229Z,20.78
2024-01-11T07:53:09.988Z,19.73
2024-01-11T07:54:09.780Z,21.18
2024-01-11T07:55:10.457Z,21.11
2024-01-11T07:56:09.930Z,20.99
2024-01-11T07:57:10.604Z,20.08
2024-01-11T07:58:09.999Z,20.26
2024-01-11T07:59:10.412Z,20.48
2024-01-11T08:00:10.515Z,19.78
2024-01-11T08:01:11.008Z,21.06
2024-01-11T08:02:10.564Z,20.36
2024-01-11T08:03:10.485Z,19.76
2024-01-11T08:04:10.671Z,19.93
2024-01-11T08:05:12.457Z,20.67
2024-01-11T08:06:11.536Z,20.05
2024-01-11T08:07:11.355Z,21.57
2024-01-11T08:08:10.583Z,21.47
2024-01-11T08:09:11.518Z,22.17
2024-01-11T08:10:34.632Z,21.58
2024-01-11T08:11:10.878Z,20.51
2024-01-11T08:12:11.231Z,20.86
2024-01-11T08:13:11.753Z,21.28
2024-01-11T08:14:11.041Z,21.19
2024-01-11T08:15:11.238Z,20.94
2024-01-11T08:16:11.726Z,21.17
2024-01-11T08:17:12.377Z,21.46
2024-01-11T08:18:11.967Z,20.72
2024-01-11T08:19:11.424Z,20.93
2024-01-11T08:20:11.419Z,20.54
2024-01-11T08:21:11.455Z,20.71
2024-01-11T08:22:11.058Z,20.89
2024-01-11T08:23:11.883Z,20.58
2024-01-11T08:24:11.181Z,20.83
2024-01-11T08:25:12.047Z,20.18
2024-01-11T08:26:12.060Z,20.46
2024-01-11T08:27:11.292Z,21.05
2024-01-11T08:28:11.922Z,20.66
2024-01-11T08:29:11.589Z,20.55
2024-01-11T08:30:11.716Z,22.30
2024-01-11T08:31:11.625Z,21.63
2024-01-11T08:32:19.984Z,23.42
2024-01-11T08:33:12.966Z,22.46
2024-01-11T08:34:15.273Z,21.71
2024-01-11T08:35:11.882Z,20.94
2024-01-11T08:36:11.566Z,21.30
2024-01-11T08:37:11.412Z,21.67
2024-01-11T08:38:12.082Z,21.25
2024-01-11T08:39:11.465Z,21.20
2024-01-11T08:40:11.484Z,22.54
2024-01-11T08:41:11.613Z,22.23
2024-01-11T08:42:11.591Z,23.43
2024-01-11T08:43:11.763Z,23.83
2024-01-11T08:44:12.144Z,22.70
2024-01-11T08:45:11.611Z,22.79
2024-01-11T08:46:11.619Z,21.86
2024-01-11T08:47:11.678Z,22.72
2024-01-11T08:48:11.794Z,22.03
2024-01-11T08:49:11.847Z,21.77
2024-01-11T08:50:11.680Z,24.06
2024-01-11T08:51:12.232Z,22.98
2024-01-11T08:52:11.832Z,22.59
2024-01-11T08:53:11.896Z,28.15
2024-01-11T08:54:11.792Z,24.88
2024-01-11T08:55:11.805Z,24.78
2024-01-11T08:56:12.273Z,24.66
2024-01-11T08:57:12.133Z,23.01
2024-01-11T08:58:37.634Z,21.90
2024-01-11T08:59:11.940Z,23.28
2024-01-11T09:00:11.885Z,23.68
2024-01-11T09:01:12.094Z,21.98
2024-01-11T09:02:15.850Z,22.43
2024-01-11T09:03:13.576Z,22.29
2024-01-11T09:04:12.093Z,22.61
2024-01-11T09:05:12.054Z,21.44
2024-01-11T09:06:12.232Z,20.31
2024-01-11T09:07:12.394Z,21.29
2024-01-11T09:08:12.229Z,19.87
2024-01-11T09:09:12.464Z,20.82
2024-01-11T09:10:12.441Z,21.45
2024-01-11T09:11:12.806Z,20.88
2024-01-11T09:12:12.690Z,21.90
2024-01-11T09:13:14.099Z,21.69
2024-01-11T09:14:12.838Z,21.44
2024-01-11T09:15:12.746Z,21.90
2024-01-11T09:16:12.799Z,21.35
2024-01-11T09:17:12.969Z,22.58
2024-01-11T09:18:13.426Z,21.63
2024-01-11T09:19:13.174Z,21.17
2024-01-11T09:20:13.368Z,22.74
2024-01-11T09:21:13.198Z,21.47
2024-01-11T09:22:13.595Z,22.88
2024-01-11T09:23:13.281Z,22.64
2024-01-11T09:24:13.334Z,30.57
2024-01-11T09:25:13.320Z,23.39
2024-01-11T09:26:13.491Z,22.88
2024-01-11T09:27:13.437Z,23.92
2024-01-11T09:28:13.578Z,23.27
2024-01-11T09:29:13.615Z,23.62
2024-01-11T09:30:13.639Z,23.88
2024-01-11T09:31:14.205Z,22.94
2024-01-11T09:32:13.782Z,23.63
2024-01-11T09:33:13.778Z,23.18
2024-01-11T09:34:13.997Z,23.07
2024-01-11T09:35:16.195Z,23.67
2024-01-11T09:36:14.157Z,24.49
2024-01-11T09:37:13.935Z,25.34
2024-01-11T09:38:14.290Z,22.94
2024-01-11T09:39:14.144Z,23.29
2024-01-11T09:40:14.062Z,23.17
2024-01-11T09:41:15.066Z,23.40
2024-01-11T09:42:13.996Z,23.01
2024-01-11T09:43:14.158Z,23.10
2024-01-11T09:44:14.100Z,22.29
2024-01-11T09:45:14.215Z,23.15
2024-01-11T09:46:14.680Z,24.11
2024-01-11T09:47:16.342Z,22.72
2024-01-11T09:48:14.246Z,22.55
2024-01-11T09:49:14.255Z,23.19
2024-01-11T09:50:14.439Z,23.34
2024-01-11T09:51:14.214Z,25.24
2024-01-11T09:52:14.656Z,23.36
2024-01-11T09:53:14.261Z,26.10
2024-01-11T09:54:14.216Z,25.84
2024-01-11T09:55:14.678Z,28.05
2024-01-11T09:56:14.311Z,26.46
2024-01-11T09:57:15.213Z,26.82
2024-01-11T09:58:14.518Z,28.35
2024-01-11T09:59:15.239Z,28.19
2024-01-11T10:00:14.509Z,26.77
2024-01-11T10:01:15.448Z,26.25
2024-01-11T10:02:14.690Z,24.92
2024-01-11T10:03:14.813Z,28.35
2024-01-11T10:04:15.762Z,25.37
2024-01-11T10:05:15.328Z,24.59
2024-01-11T10:06:14.358Z,24.37
2024-01-11T10:07:15.447Z,23.97
2024-01-11T10:08:15.633Z,24.77
2024-01-11T10:09:14.696Z,26.17
2024-01-11T10:10:15.424Z,27.49
2024-01-11T10:11:15.200Z,27.46
2024-01-11T10:12:15.197Z,26.81
2024-01-11T10:13:15.249Z,26.71
2024-01-11T10:14:14.666Z,26.31
2024-01-11T10:15:14.689Z,26.90
2024-01-11T10:16:23.251Z,24.90
2024-01-11T10:17:25.636Z,23.24
2024-01-11T10:18:23.319Z,22.17
2024-01-11T10:19:23.334Z,20.64
2024-01-11T10:20:22.950Z,19.05
2024-01-11T10:21:23.953Z,20.86
2024-01-11T10:22:24.852Z,20.90
2024-01-11T10:23:23.938Z,23.52
2024-01-11T10:24:23.002Z,24.55
2024-01-11T10:25:22.997Z,24.65
2024-01-11T10:26:22.722Z,25.00
2024-01-11T10:27:22.994Z,24.51
2024-01-11T10:28:22.610Z,24.87
2024-01-11T10:29:22.859Z,25.00
2024-01-11T10:30:22.624Z,24.40
2024-01-11T10:31:23.040Z,24.05
2024-01-11T10:32:23.201Z,25.65
2024-01-11T10:33:23.577Z,23.66
2024-01-11T10:34:22.612Z,22.49
2024-01-11T10:35:23.385Z,22.67
2024-01-11T10:36:23.042Z,21.79
2024-01-11T10:37:22.978Z,22.50
2024-01-11T10:38:22.862Z,22.53
2024-01-11T10:39:22.395Z,22.83
2024-01-11T10:40:22.399Z,21.41
2024-01-11T10:41:22.383Z,22.50
2024-01-11T10:42:22.716Z,21.85
2024-01-11T10:43:22.709Z,20.61
2024-01-11T10:44:22.374Z,20.45
2024-01-11T10:45:23.809Z,20.10
2024-01-11T10:46:23.034Z,20.17
2024-01-11T10:47:23.604Z,20.70
2024-01-11T10:48:22.500Z,20.61
2024-01-11T10:49:22.812Z,22.00
2024-01-11T10:50:22.423Z,19.75
2024-01-11T10:51:22.875Z,20.46
2024-01-11T10:52:23.285Z,20.88
2024-01-11T10:53:22.598Z,19.38
2024-01-11T10:54:22.715Z,20.35
2024-01-11T10:55:23.756Z,19.92
2024-01-11T10:56:23.796Z,20.08
2024-01-11T10:57:22.605Z,18.63
2024-01-11T10:58:22.774Z,18.54
2024-01-11T10:59:22.636Z,18.58
2024-01-11T11:00:24.204Z,19.19
2024-01-11T11:01:23.252Z,19.05
2024-01-11T11:02:24.062Z,19.21
2024-01-11T11:03:23.100Z,18.12
2024-01-11T11:04:24.116Z,19.53
2024-01-11T11:05:24.115Z,19.72
2024-01-11T11:06:22.621Z,18.89
2024-01-11T11:07:23.697Z,20.12
2024-01-11T11:08:23.730Z,19.53
2024-01-11T11:09:24.315Z,19.23
2024-01-11T11:10:22.366Z,16.93
2024-01-11T11:11:22.988Z,17.44
2024-01-11T11:12:23.029Z,18.10
2024-01-11T11:13:23.046Z,19.96
2024-01-11T11:14:22.988Z,18.02
2024-01-11T11:15:22.306Z,18.63
2024-01-11T11:16:22.928Z,17.77
2024-01-11T11:17:24.273Z,17.07
2024-01-11T11:18:23.535Z,16.50
2024-01-11T11:19:22.441Z,15.64
2024-01-11T11:20:22.225Z,16.36
2024-01-11T11:21:22.453Z,15.93
2024-01-11T11:22:23.009Z,16.67
2024-01-11T11:23:22.077Z,15.65
2024-01-11T11:24:23.704Z,15.83
2024-01-11T11:25:22.748Z,16.65
2024-01-11T11:26:22.321Z,18.29
2024-01-11T11:27:26.306Z,17.12
2024-01-11T11:28:23.436Z,17.10
2024-01-11T11:29:22.710Z,18.88
2024-01-11T11:30:21.844Z,17.98
2024-01-11T11:31:22.112Z,17.59
2024-01-11T11:32:22.282Z,16.67
2024-01-11T11:33:22.624Z,17.57
2024-01-11T11:34:21.765Z,18.86
2024-01-11T11:35:22.257Z,18.40
2024-01-11T11:36:21.436Z,17.93
2024-01-11T11:37:21.768Z,18.50
2024-01-11T11:38:21.393Z,18.77
2024-01-11T11:39:21.678Z,18.29
2024-01-11T11:40:21.682Z,17.40
2024-01-11T11:41:21.206Z,17.82
2024-01-11T11:42:21.186Z,17.47
2024-01-11T11:43:22.731Z,18.11
2024-01-11T11:44:21.084Z,16.83
2024-01-11T11:45:20.881Z,18.08
2024-01-11T11:46:21.407Z,17.64
2024-01-11T11:47:21.761Z,17.08
2024-01-11T11:48:20.862Z,17.21
2024-01-11T11:49:20.580Z,17.61
2024-01-11T11:50:20.618Z,15.45
2024-01-11T11:51:21.315Z,14.01
2024-01-11T11:52:20.942Z,16.45
2024-01-11T11:53:20.565Z,17.83
2024-01-11T11:54:20.555Z,17.31
2024-01-11T11:55:20.568Z,17.62
2024-01-11T11:56:20.473Z,17.32
2024-01-11T11:57:20.469Z,17.13
2024-01-11T11:58:20.683Z,17.51
2024-01-11T11:59:20.545Z,17.51
2024-01-11T12:00:20.491Z,17.39
2024-01-11T12:01:20.471Z,18.44
2024-01-11T12:02:20.423Z,17.54
2024-01-11T12:03:20.710Z,16.26
2024-01-11T12:04:20.435Z,19.06
2024-01-11T12:05:20.483Z,17.15
2024-01-11T12:06:20.282Z,18.61
2024-01-11T12:07:20.146Z,17.36
2024-01-11T12:08:20.472Z,18.13
2024-01-11T12:09:20.340Z,17.06
2024-01-11T12:10:20.093Z,18.79
2024-01-11T12:11:19.821Z,18.75
2024-01-11T12:12:19.772Z,16.13
2024-01-11T12:13:19.741Z,19.08
2024-01-11T12:14:19.644Z,18.30
2024-01-11T12:15:19.726Z,18.67
2024-01-11T12:16:19.512Z,18.55
2024-01-11T12:17:19.434Z,19.25
2024-01-11T12:18:20.228Z,19.56
2024-01-11T12:19:19.596Z,18.10
2024-01-11T12:20:19.429Z,17.58
2024-01-11T12:21:19.294Z,17.73
2024-01-11T12:22:19.684Z,16.80
2024-01-11T12:23:19.359Z,18.63
2024-01-11T12:24:19.216Z,19.77
2024-01-11T12:25:19.348Z,21.25
2024-01-11T12:26:21.098Z,21.38
2024-01-11T12:27:19.159Z,20.83
2024-01-11T12:28:21.325Z,19.30
2024-01-11T12:29:19.196Z,25.96
2024-01-11T12:30:19.728Z,20.80
2024-01-11T12:31:19.102Z,19.57
2024-01-11T12:32:19.405Z,18.73
2024-01-11T12:33:19.432Z,20.30
2024-01-11T12:34:19.137Z,19.16
2024-01-11T12:35:19.022Z,20.84
2024-01-11T12:36:18.902Z,20.38
2024-01-11T12:37:18.926Z,20.32
2024-01-11T12:38:20.048Z,19.29
2024-01-11T12:39:18.827Z,19.68
2024-01-11T12:40:18.802Z,21.32
2024-01-11T12:41:18.733Z,19.76
2024-01-11T12:42:18.744Z,18.72
2024-01-11T12:43:19.155Z,16.71
2024-01-11T12:44:18.778Z,16.96
2024-01-11T12:45:18.708Z,15.82
2024-01-11T12:46:18.660Z,16.05
2024-01-11T12:47:18.560Z,15.54
2024-01-11T12:48:18.814Z,13.34
2024-01-11T12:49:18.721Z,13.89
2024-01-11T12:50:18.662Z,13.16
2024-01-11T12:51:21.548Z,13.16
2024-01-11T12:52:18.394Z,11.92
2024-01-11T12:53:18.411Z,12.46
2024-01-11T12:54:18.296Z,12.59
2024-01-11T12:55:18.324Z,12.74
2024-01-11T12:56:18.388Z,13.00
2024-01-11T12:57:18.202Z,12.30
2024-01-11T12:58:18.126Z,12.47
2024-01-11T12:59:18.112Z,12.40
2024-01-11T13:00:17.977Z,12.72
2024-01-11T13:01:17.925Z,11.69
2024-01-11T13:02:19.560Z,11.98
2024-01-11T13:03:17.972Z,12.09